createdAt,value
2022-09-02T00:01:38.036Z,102107.34
2022-09-02T00:04:13.800Z,102107.97
2022-09-02T00:06:42.244Z,102108.19
2022-09-02T00:09:11.251Z,102113.25
2022-09-02T00:11:40.634Z,102104.88
2022-09-02T00:14:11.191Z,102098.31
2022-09-02T00:16:38.893Z,102101.25
2022-09-02T00:19:05.988Z,102104.22
2022-09-02T00:21:34.657Z,102096.66
2022-09-02T00:24:03.785Z,102100.03
2022-09-02T00:26:30.617Z,102089.09
2022-09-02T00:28:57.370Z,102094.81
2022-09-02T00:31:25.894Z,102096.25
2022-09-02T00:33:53.556Z,102094.59
2022-09-02T00:36:21.155Z,102093.34
2022-09-02T00:38:47.941Z,102095.66
2022-09-02T00:41:15.282Z,102096.06
2022-09-02T00:43:46.945Z,102097.16
2022-09-02T00:46:16.807Z,102098.38
2022-09-02T00:49:10.834Z,102098.44
2022-09-02T00:51:51.615Z,102100.31
2022-09-02T00:54:20.634Z,102099.66
2022-09-02T00:56:49.830Z,102098.81
2022-09-02T00:59:48.829Z,102100.50
2022-09-02T01:02:15.715Z,102101.56
2022-09-02T01:04:43.377Z,102099.22
2022-09-02T01:07:09.994Z,102099.22
2022-09-02T01:09:38.033Z,102100.09
2022-09-02T01:12:05.589Z,102099.44
2022-09-02T01:14:32.288Z,102096.25
2022-09-02T01:17:01.190Z,102083.25
2022-09-02T01:19:38.832Z,102094.63
2022-09-02T01:22:22.608Z,102090.59
2022-09-02T01:24:49.456Z,102097.34
2022-09-02T01:27:18.431Z,102090.19
2022-09-02T01:29:46.415Z,102084.75
2022-09-02T01:32:13.059Z,102093.16
2022-09-02T01:34:39.695Z,102094.63
2022-09-02T01:37:07.160Z,102090.41
2022-09-02T01:39:33.823Z,102087.22
2022-09-02T01:42:01.241Z,102082.59
2022-09-02T01:44:27.973Z,102087.47
2022-09-02T01:46:55.443Z,102083.84
2022-09-02T01:49:22.600Z,102075.25
2022-09-02T01:51:49.911Z,102079.66
2022-09-02T01:54:16.499Z,102084.47
2022-09-02T01:56:43.232Z,102071.69
2022-09-02T01:59:11.812Z,102072.06
2022-09-02T02:01:38.537Z,102081.72
2022-09-02T02:04:05.253Z,102076.25
2022-09-02T02:06:31.825Z,102067.66
2022-09-02T02:08:58.372Z,102077.91
2022-09-02T02:11:25.462Z,102076.94
2022-09-02T02:13:52.144Z,102067.66
2022-09-02T02:16:18.740Z,102070.38
2022-09-02T02:18:45.296Z,102067.22
2022-09-02T02:21:11.902Z,102062.59
2022-09-02T02:23:38.701Z,102060.06
2022-09-02T02:26:05.404Z,102065.13
2022-09-02T02:28:31.924Z,102061.41
2022-09-02T02:31:00.040Z,102059.69
2022-09-02T02:33:36.274Z,102058.00
2022-09-02T02:36:04.846Z,102055.53
2022-09-02T02:38:36.467Z,102059.69
2022-09-02T02:41:06.375Z,102060.53
2022-09-02T02:43:34.859Z,102059.94
2022-09-02T02:46:01.763Z,102054.28
2022-09-02T02:48:28.645Z,102049.66
2022-09-02T02:50:55.805Z,102048.81
2022-09-02T02:53:22.610Z,102048.81
2022-09-02T02:55:50.027Z,102055.34
2022-09-02T02:58:18.323Z,102056.84
2022-09-02T03:00:46.296Z,102049.06
2022-09-02T03:03:13.300Z,102061.03
2022-09-02T03:05:40.230Z,102050.09
2022-09-02T03:08:09.637Z,102049.28
2022-09-02T03:10:38.707Z,102049.28
2022-09-02T03:13:05.960Z,102057.88
2022-09-02T03:15:33.413Z,102058.75
2022-09-02T03:18:00.157Z,102053.06
2022-09-02T03:20:26.834Z,102049.06
2022-09-02T03:22:56.545Z,102050.75
2022-09-02T03:25:24.229Z,102050.94
2022-09-02T03:27:52.208Z,102041.09
2022-09-02T03:30:23.367Z,102050.13
2022-09-02T03:32:50.835Z,102049.28
2022-09-02T03:35:20.347Z,102041.09
2022-09-02T03:37:48.475Z,102042.13
2022-09-02T03:40:19.257Z,102043.00
2022-09-02T03:42:47.377Z,102037.09
2022-09-02T03:45:15.515Z,102038.34
2022-09-02T03:47:50.959Z,102037.94
2022-09-02T03:50:20.239Z,102031.66
2022-09-02T03:52:47.266Z,102030.78
2022-09-02T03:55:14.316Z,102028.09
2022-09-02T03:57:40.969Z,102028.69
2022-09-02T04:00:09.810Z,102028.50
2022-09-02T04:02:36.473Z,102025.34
2022-09-02T04:05:03.524Z,102028.06
2022-09-02T04:07:30.065Z,102032.47
2022-09-02T04:09:56.617Z,102021.56
2022-09-02T04:12:23.545Z,102024.28
2022-09-02T04:14:58.781Z,102022.22
2022-09-02T04:17:25.390Z,102020.72
2022-09-02T04:19:54.807Z,102022.34
2022-09-02T04:22:21.525Z,102022.78
2022-09-02T04:24:48.107Z,102014.81
2022-09-02T04:27:14.669Z,102022.78
2022-09-02T04:29:41.270Z,102017.34
2022-09-02T04:32:07.831Z,102029.91
2022-09-02T04:34:34.547Z,102026.78
2022-09-02T04:37:01.098Z,102021.94
2022-09-02T04:39:27.756Z,102026.13
2022-09-02T04:41:54.488Z,102032.63
2022-09-02T04:44:21.340Z,102029.06
2022-09-02T04:46:50.301Z,102026.13
2022-09-02T04:49:17.697Z,102026.78
2022-09-02T04:51:44.381Z,102032.84
2022-09-02T04:54:11.011Z,102026.56
2022-09-02T04:56:38.529Z,102023.19
2022-09-02T04:59:05.183Z,102027.00
2022-09-02T05:01:34.288Z,102019.84
2022-09-02T05:04:03.019Z,102026.13
2022-09-02T05:06:29.953Z,102034.31
2022-09-02T05:08:59.316Z,102028.25
2022-09-02T05:11:28.563Z,102027.81
2022-09-02T05:13:57.198Z,102037.03
2022-09-02T05:16:30.941Z,102031.19
2022-09-02T05:18:58.841Z,102031.59
2022-09-02T05:21:26.164Z,102030.53
2022-09-02T05:23:54.508Z,102028.88
2022-09-02T05:26:22.742Z,102029.72
2022-09-02T05:28:49.795Z,102029.72
2022-09-02T05:31:18.392Z,102033.94
2022-09-02T05:33:45.571Z,102029.50
2022-09-02T05:36:15.953Z,102032.66
2022-09-02T05:38:44.206Z,102033.94
2022-09-02T05:41:19.797Z,102020.94
2022-09-02T05:43:47.019Z,102032.28
2022-09-02T05:46:17.854Z,102027.03
2022-09-02T05:49:04.349Z,102027.47
2022-09-02T05:51:32.662Z,102026.19
2022-09-02T05:54:01.201Z,102031.22
2022-09-02T05:56:27.889Z,102027.00
2022-09-02T05:58:59.004Z,102029.28
2022-09-02T06:01:28.277Z,102026.97
2022-09-02T06:03:56.164Z,102027.78
2022-09-02T06:06:23.902Z,102031.16
2022-09-02T06:08:51.187Z,102026.09
2022-09-02T06:11:18.424Z,102029.00
2022-09-02T06:13:46.718Z,102030.19
2022-09-02T06:16:16.209Z,102029.31
2022-09-02T06:18:43.435Z,102022.94
2022-09-02T06:21:10.050Z,102024.16
2022-09-02T06:23:39.151Z,102025.63
2022-09-02T06:26:08.832Z,102024.91
2022-09-02T06:28:36.291Z,102030.75
2022-09-02T06:31:10.933Z,102025.38
2022-09-02T06:33:38.225Z,102028.47
2022-09-02T06:36:10.233Z,102039.75
2022-09-02T06:38:45.652Z,102028.91
2022-09-02T06:41:16.044Z,102040.13
2022-09-02T06:43:43.118Z,102037.88
2022-09-02T06:46:18.931Z,102028.28
2022-09-02T06:48:45.893Z,102025.03
2022-09-02T06:51:20.442Z,102032.66
2022-09-02T06:53:47.133Z,102034.88
2022-09-02T06:56:14.190Z,102027.56
2022-09-02T06:58:40.955Z,102027.63
2022-09-02T07:01:11.996Z,102026.94
2022-09-02T07:04:09.426Z,102023.56
2022-09-02T07:06:39.733Z,102021.94
2022-09-02T07:09:10.513Z,102019.25
2022-09-02T07:11:40.944Z,102017.00
2022-09-02T07:14:08.284Z,102018.47
2022-09-02T07:16:42.810Z,102021.94
2022-09-02T07:19:15.082Z,102013.38
2022-09-02T07:21:47.532Z,102025.56
2022-09-02T07:24:15.558Z,102023.66
2022-09-02T07:26:44.687Z,102024.13
2022-09-02T07:29:14.855Z,102026.38
2022-09-02T07:31:48.932Z,102018.09
2022-09-02T07:34:22.034Z,102027.50
2022-09-02T07:36:53.485Z,102020.53
2022-09-02T07:39:20.534Z,102022.69
2022-09-02T07:41:50.366Z,102017.59
2022-09-02T07:44:18.350Z,102023.34
2022-09-02T07:46:46.877Z,102021.25
2022-09-02T07:49:15.699Z,102009.44
2022-09-02T07:51:46.372Z,102015.56
2022-09-02T07:54:13.350Z,102008.63
2022-09-02T07:56:40.829Z,102017.41
2022-09-02T07:59:07.498Z,102024.75
2022-09-02T08:01:34.571Z,102013.28
2022-09-02T08:04:04.106Z,102002.59
2022-09-02T08:06:34.731Z,102017.53
2022-09-02T08:09:04.613Z,102021.84
2022-09-02T08:11:32.802Z,102017.88
2022-09-02T08:14:00.648Z,102023.25
2022-09-02T08:16:27.472Z,102013.38
2022-09-02T08:18:54.547Z,102010.94
2022-09-02T08:21:21.830Z,102023.84
2022-09-02T08:23:50.589Z,102014.22
2022-09-02T08:26:18.524Z,102007.25
2022-09-02T08:28:46.243Z,102016.41
2022-09-02T08:31:13.024Z,102013.06
2022-09-02T08:33:39.684Z,102006.78
2022-09-02T08:36:09.396Z,102017.72
2022-09-02T08:38:36.865Z,102009.03
2022-09-02T08:41:13.798Z,102011.59
2022-09-02T08:43:43.352Z,102006.19
2022-09-02T08:46:15.014Z,102012.09
2022-09-02T08:48:55.250Z,102005.59
2022-09-02T08:51:53.829Z,102000.81
2022-09-02T08:54:28.351Z,101999.31
2022-09-02T08:56:56.112Z,102006.53
2022-09-02T08:59:28.693Z,102008.22
2022-09-02T09:02:21.712Z,102006.16
2022-09-02T09:05:25.552Z,101994.47
2022-09-02T09:08:22.255Z,101997.53
2022-09-02T09:11:01.816Z,102002.91
2022-09-02T09:13:53.120Z,101992.41
2022-09-02T09:16:35.007Z,101993.88
2022-09-02T09:19:16.774Z,101994.75
2022-09-02T09:21:44.448Z,101993.16
2022-09-02T09:24:36.884Z,101988.19
2022-09-02T09:27:09.453Z,101986.81
2022-09-02T09:29:36.453Z,101972.72
2022-09-02T09:32:04.522Z,101984.41
2022-09-02T09:34:53.072Z,101971.66
2022-09-02T09:37:35.748Z,101973.31
2022-09-02T09:40:21.712Z,101960.56
2022-09-02T09:42:50.034Z,101973.88
2022-09-02T09:45:22.073Z,101970.00
2022-09-02T09:48:19.014Z,101968.41
2022-09-02T09:50:47.758Z,101968.06
2022-09-02T09:53:20.024Z,101974.47
2022-09-02T09:55:54.259Z,101964.19
2022-09-02T09:58:30.961Z,101963.34
2022-09-02T10:01:00.882Z,101958.91
2022-09-02T10:03:32.837Z,101954.47
2022-09-02T10:06:18.434Z,101952.31
2022-09-02T10:09:06.288Z,101953.41
2022-09-02T10:11:37.820Z,101943.69
2022-09-02T10:14:10.070Z,101937.94
2022-09-02T10:16:53.722Z,101939.84
2022-09-02T10:19:34.314Z,101924.34
2022-09-02T10:22:06.186Z,101933.50
2022-09-02T10:24:32.734Z,101924.06
2022-09-02T10:27:00.540Z,101920.47
2022-09-02T10:29:52.918Z,101918.53
2022-09-02T10:32:39.712Z,101925.16
2022-09-02T10:35:12.429Z,101911.31
2022-09-02T10:38:33.276Z,101910.75
2022-09-02T10:41:16.638Z,101911.56
2022-09-02T10:44:00.050Z,101902.41
2022-09-02T10:46:35.575Z,101904.66
2022-09-02T10:49:05.008Z,101904.09
2022-09-02T10:52:05.563Z,101898.50
2022-09-02T10:54:48.172Z,101897.13
2022-09-02T10:57:20.144Z,101891.56
2022-09-02T11:00:27.410Z,101898.47
2022-09-02T11:02:56.843Z,101888.47
2022-09-02T11:05:42.305Z,101886.53
2022-09-02T11:08:09.911Z,101883.22
2022-09-02T11:10:41.497Z,101883.16
2022-09-02T11:13:31.529Z,101877.63
2022-09-02T11:16:15.330Z,101880.41
2022-09-02T11:18:50.630Z,101881.72
2022-09-02T11:21:38.912Z,101875.44
2022-09-02T11:24:13.534Z,101878.41
2022-09-02T11:26:54.441Z,101874.28
2022-09-02T11:29:26.904Z,101867.63
2022-09-02T11:32:35.066Z,101863.47
2022-09-02T11:35:07.907Z,101869.91
2022-09-02T11:37:42.980Z,101859.66
2022-09-02T11:40:33.779Z,101859.88
2022-09-02T11:43:04.005Z,101852.81
2022-09-02T11:45:44.206Z,101857.38
2022-09-02T11:48:50.837Z,101856.28
2022-09-02T11:51:47.240Z,101864.41
2022-09-02T11:54:23.374Z,101857.44
2022-09-02T11:57:16.202Z,101850.13
2022-09-02T11:59:51.947Z,101853.50
2022-09-02T12:02:56.469Z,101857.56
2022-09-02T12:05:30.309Z,101843.88
2022-09-02T12:08:48.970Z,101844.50
2022-09-02T12:11:59.846Z,101837.94
2022-09-02T12:14:31.761Z,101828.47
2022-09-02T12:17:03.757Z,101833.34
2022-09-02T12:19:41.244Z,101833.25
2022-09-02T12:22:17.178Z,101831.06
2022-09-02T12:25:05.017Z,101825.78
2022-09-02T12:27:36.961Z,101814.47
2022-09-02T12:30:15.712Z,101816.34
2022-09-02T12:32:46.262Z,101811.56
2022-09-02T12:35:34.907Z,101820.53
2022-09-02T12:38:12.614Z,101822.88
2022-09-02T12:41:22.107Z,101803.53
2022-09-02T12:44:02.559Z,101811.22
2022-09-02T12:46:51.214Z,101820.06
2022-09-02T12:49:43.002Z,101818.16
2022-09-02T12:52:12.199Z,101813.50
2022-09-02T12:54:38.668Z,101814.47
2022-09-02T12:57:09.847Z,101814.66
2022-09-02T12:59:40.043Z,101803.94
2022-09-02T13:02:30.172Z,101804.22
2022-09-02T13:05:10.577Z,101794.09
2022-09-02T13:07:43.678Z,101790.66
2022-09-02T13:10:52.753Z,101789.09
2022-09-02T13:13:47.307Z,101781.72
2022-09-02T13:16:38.953Z,101799.41
2022-09-02T13:19:46.441Z,101794.31
2022-09-02T13:22:46.288Z,101789.53
2022-09-02T13:25:25.100Z,101794.06
2022-09-02T13:28:38.423Z,101778.78
2022-09-02T13:31:25.756Z,101788.44
2022-09-02T13:34:05.505Z,101772.72
2022-09-02T13:36:45.762Z,101775.03
2022-09-02T13:39:28.634Z,101774.94
2022-09-02T13:41:55.337Z,101760.44
2022-09-02T13:44:26.571Z,101765.66
2022-09-02T13:46:55.246Z,101765.50
2022-09-02T13:49:37.661Z,101769.72
2022-09-02T13:52:07.280Z,101766.72
2022-09-02T13:54:37.230Z,101749.59
2022-09-02T13:57:07.079Z,101750.91
2022-09-02T13:59:33.555Z,101750.06
2022-09-02T14:02:00.221Z,101751.25
2022-09-02T14:04:27.755Z,101741.03
2022-09-02T14:06:54.668Z,101736.47
2022-09-02T14:09:29.743Z,101725.34
2022-09-02T14:11:58.957Z,101723.50
2022-09-02T14:14:26.318Z,101728.56
2022-09-02T14:16:53.076Z,101729.16
2022-09-02T14:19:22.394Z,101726.38
2022-09-02T14:21:56.030Z,101731.50
2022-09-02T14:24:29.024Z,101719.09
2022-09-02T14:27:00.557Z,101727.06
2022-09-02T14:29:32.057Z,101717.88
2022-09-02T14:32:15.629Z,101715.34
2022-09-02T14:34:47.293Z,101724.09
2022-09-02T14:37:18.995Z,101723.75
2022-09-02T14:40:12.672Z,101720.88
2022-09-02T14:42:45.545Z,101713.09
2022-09-02T14:45:13.086Z,101710.38
2022-09-02T14:47:40.928Z,101711.13
2022-09-02T14:50:15.362Z,101713.34
2022-09-02T14:52:48.144Z,101710.28
2022-09-02T14:55:52.402Z,101710.31
2022-09-02T14:58:20.988Z,101700.69
2022-09-02T15:00:56.124Z,101694.59
2022-09-02T15:03:24.049Z,101699.63
2022-09-02T15:05:52.414Z,101703.53
2022-09-02T15:08:19.593Z,101709.03
2022-09-02T15:10:46.636Z,101712.91
2022-09-02T15:13:18.062Z,101712.13
2022-09-02T15:15:44.680Z,101709.50
2022-09-02T15:18:12.595Z,101706.44
2022-09-02T15:20:39.159Z,101706.91
2022-09-02T15:23:05.706Z,101699.63
2022-09-02T15:25:34.221Z,101697.72
2022-09-02T15:28:01.103Z,101689.28
2022-09-02T15:30:28.040Z,101692.72
2022-09-02T15:32:54.573Z,101684.31
2022-09-02T15:35:21.277Z,101680.34
2022-09-02T15:37:50.262Z,101680.19
2022-09-02T15:40:17.008Z,101688.28
2022-09-02T15:42:43.548Z,101683.13
2022-09-02T15:45:10.474Z,101683.81
2022-09-02T15:47:38.274Z,101683.94
2022-09-02T15:50:06.309Z,101690.00
2022-09-02T15:52:35.057Z,101684.31
2022-09-02T15:55:02.069Z,101678.25
2022-09-02T15:57:29.914Z,101682.22
2022-09-02T15:59:56.634Z,101682.66
2022-09-02T16:02:23.513Z,101673.16
2022-09-02T16:04:50.105Z,101673.19
2022-09-02T16:07:17.401Z,101673.31
2022-09-02T16:09:44.095Z,101669.06
2022-09-02T16:12:11.193Z,101672.59
2022-09-02T16:14:37.737Z,101668.94
2022-09-02T16:17:04.584Z,101668.53
2022-09-02T16:19:31.293Z,101668.25
2022-09-02T16:21:58.646Z,101667.50
2022-09-02T16:24:25.395Z,101664.56
2022-09-02T16:26:52.129Z,101654.75
2022-09-02T16:29:19.818Z,101652.59
2022-09-02T16:32:13.940Z,101654.16
2022-09-02T16:34:38.392Z,101658.44
2022-09-02T16:37:05.963Z,101650.16
2022-09-02T16:39:33.296Z,101644.75
2022-09-02T16:42:04.333Z,101638.19
2022-09-02T16:44:34.393Z,101636.84
2022-09-02T16:47:01.256Z,101637.63
2022-09-02T16:49:28.097Z,101640.50
2022-09-02T16:51:58.079Z,101638.94
2022-09-02T16:54:30.973Z,101634.59
2022-09-02T16:57:00.283Z,101625.72
2022-09-02T16:59:27.403Z,101629.06
2022-09-02T17:01:54.261Z,101634.91
2022-09-02T17:04:21.392Z,101629.38
2022-09-02T17:06:48.450Z,101626.88
2022-09-02T17:09:16.707Z,101628.56
2022-09-02T17:11:45.405Z,101626.91
2022-09-02T17:14:15.242Z,101626.41
2022-09-02T17:16:45.636Z,101626.69
2022-09-02T17:19:21.327Z,101631.44
2022-09-02T17:21:51.164Z,101629.78
2022-09-02T17:24:18.882Z,101622.59
2022-09-02T17:26:50.657Z,101624.59
2022-09-02T17:32:09.675Z,101626.31
2022-09-02T17:34:36.927Z,101626.38
2022-09-02T17:37:04.653Z,101621.66
2022-09-02T17:39:31.390Z,101626.91
2022-09-02T17:42:02.131Z,101623.63
2022-09-02T17:44:40.714Z,101629.41
2022-09-02T17:47:11.173Z,101634.97
2022-09-02T17:49:41.267Z,101636.94
2022-09-02T17:52:08.580Z,101636.97
2022-09-02T17:54:37.332Z,101633.09
2022-09-02T17:57:43.152Z,101634.97
2022-09-02T18:00:19.281Z,101628.34
2022-09-02T18:03:13.424Z,101630.56
2022-09-02T18:06:09.130Z,101633.56
2022-09-02T18:08:48.945Z,101628.31
2022-09-02T18:11:15.890Z,101632.16
2022-09-02T18:14:07.455Z,101635.19
2022-09-02T18:16:51.348Z,101631.00
2022-09-02T18:19:44.056Z,101635.38
2022-09-02T18:22:44.453Z,101643.38
2022-09-02T18:25:17.097Z,101643.56
2022-09-02T18:28:06.611Z,101642.59
2022-09-02T18:30:58.322Z,101635.72
2022-09-02T18:33:34.607Z,101637.63
2022-09-02T18:36:19.505Z,101641.66
2022-09-02T18:39:18.110Z,101645.91
2022-09-02T18:42:06.181Z,101642.56
2022-09-02T18:44:52.024Z,101648.09
2022-09-02T18:47:28.980Z,101652.56
2022-09-02T18:49:58.559Z,101656.41
2022-09-02T18:52:28.252Z,101648.09
2022-09-02T18:55:03.125Z,101648.69
2022-09-02T18:57:37.049Z,101652.25
2022-09-02T19:00:11.317Z,101653.59
2022-09-02T19:02:49.196Z,101655.28
2022-09-02T19:05:21.039Z,101659.03
2022-09-02T19:08:14.923Z,101654.09
2022-09-02T19:10:41.507Z,101664.59
2022-09-02T19:13:08.380Z,101660.16
2022-09-02T19:15:36.801Z,101656.66
2022-09-02T19:18:03.403Z,101670.06
2022-09-02T19:20:31.986Z,101659.19
2022-09-02T19:22:59.356Z,101665.53
2022-09-02T19:25:29.277Z,101670.16
2022-09-02T19:27:57.915Z,101665.09
2022-09-02T19:30:25.309Z,101668.53
2022-09-02T19:32:58.390Z,101673.78
2022-09-02T19:35:28.125Z,101674.31
2022-09-02T19:37:55.352Z,101678.06
2022-09-02T19:40:26.720Z,101674.78
2022-09-02T19:42:54.978Z,101668.09
2022-09-02T19:45:22.961Z,101674.72
2022-09-02T19:48:08.119Z,101677.16
2022-09-02T19:50:44.040Z,101673.09
2022-09-02T19:53:22.417Z,101687.22
2022-09-02T19:55:51.927Z,101674.94
2022-09-02T19:58:19.187Z,101682.00
2022-09-02T20:00:47.527Z,101682.88
2022-09-02T20:03:15.149Z,101692.63
2022-09-02T20:05:42.507Z,101685.91
2022-09-02T20:08:09.492Z,101687.59
2022-09-02T20:10:37.389Z,101684.19
2022-09-02T20:13:04.733Z,101689.19
2022-09-02T20:15:31.677Z,101687.41
2022-09-02T20:18:09.311Z,101689.88
2022-09-02T20:20:36.046Z,101693.50
2022-09-02T20:23:02.904Z,101699.56
2022-09-02T20:25:56.168Z,101701.44
2022-09-02T20:28:50.642Z,101698.88
2022-09-02T20:31:56.470Z,101701.03
2022-09-02T20:34:50.127Z,101704.31
2022-09-02T20:37:27.068Z,101699.38
2022-09-02T20:40:18.953Z,101701.38
2022-09-02T20:43:04.416Z,101690.63
2022-09-02T20:45:56.285Z,101693.25
2022-09-02T20:48:44.242Z,101706.28
2022-09-02T20:51:30.300Z,101700.78
2022-09-02T20:54:07.543Z,101707.63
2022-09-02T20:56:40.243Z,101697.34
2022-09-02T20:59:26.863Z,101696.47
2022-09-02T21:01:57.377Z,101702.50
2022-09-02T21:04:40.139Z,101698.28
2022-09-02T21:07:13.549Z,101701.38
2022-09-02T21:09:59.994Z,101703.78
2022-09-02T21:12:37.251Z,101698.78
2022-09-02T21:15:38.732Z,101709.41
2022-09-02T21:18:47.128Z,101710.19
2022-09-02T21:21:23.610Z,101711.59
2022-09-02T21:23:56.204Z,101716.53
2022-09-02T21:26:36.325Z,101711.53
2022-09-02T21:29:25.064Z,101715.38
2022-09-02T21:32:06.406Z,101711.53
2022-09-02T21:34:45.915Z,101712.88
2022-09-02T21:37:13.475Z,101714.63
2022-09-02T21:39:45.982Z,101714.03
2022-09-02T21:42:30.917Z,101712.53
2022-09-02T21:44:57.456Z,101719.13
2022-09-02T21:47:28.334Z,101716.19
2022-09-02T21:50:16.561Z,101710.78
2022-09-02T21:53:11.449Z,101711.88
2022-09-02T21:56:08.898Z,101710.38
2022-09-02T21:59:14.733Z,101709.63
2022-09-02T22:02:10.713Z,101713.47
2022-09-02T22:04:40.215Z,101699.88
2022-09-02T22:07:33.556Z,101705.72
2022-09-02T22:10:07.906Z,101707.25
2022-09-02T22:12:39.826Z,101703.97
2022-09-02T22:15:23.744Z,101704.41
2022-09-02T22:17:55.537Z,101707.09
2022-09-02T22:20:32.030Z,101704.72
2022-09-02T22:23:25.184Z,101706.91
2022-09-02T22:25:55.430Z,101701.59
2022-09-02T22:28:31.861Z,101707.09
2022-09-02T22:31:07.788Z,101705.41
2022-09-02T22:33:42.797Z,101705.41
2022-09-02T22:36:22.635Z,101704.56
2022-09-02T22:38:49.808Z,101702.06
2022-09-02T22:41:35.202Z,101700.25
2022-09-02T22:44:05.393Z,101715.34
2022-09-02T22:46:53.639Z,101702.66
2022-09-02T22:49:40.520Z,101709.50
2022-09-02T22:52:46.411Z,101705.59
2022-09-02T22:55:30.661Z,101711.09
2022-09-02T22:58:22.060Z,101701.91
2022-09-02T23:01:00.469Z,101700.72
2022-09-02T23:03:42.989Z,101705.56
2022-09-02T23:06:30.400Z,101707.56
2022-09-02T23:09:05.707Z,101710.47
2022-09-02T23:11:54.008Z,101710.31
2022-09-02T23:14:41.141Z,101703.31
2022-09-02T23:17:19.399Z,101705.56
2022-09-02T23:20:08.662Z,101701.22
2022-09-02T23:22:51.496Z,101694.97
2022-09-02T23:25:30.289Z,101698.72
2022-09-02T23:27:56.790Z,101686.22
2022-09-02T23:30:30.548Z,101692.56
2022-09-02T23:33:10.157Z,101684.59
2022-09-02T23:35:48.109Z,101686.88
2022-09-02T23:38:47.372Z,101682.72
2022-09-02T23:41:15.391Z,101678.03
2022-09-02T23:43:43.761Z,101677.94
2022-09-02T23:46:20.151Z,101677.69
2022-09-02T23:48:46.694Z,101682.03
2022-09-02T23:51:29.699Z,101682.72
2022-09-02T23:54:05.486Z,101674.69
2022-09-02T23:56:50.803Z,101679.16
2022-09-02T23:59:26.404Z,101667.91
